Time;durP1;ratioP1;P1;durP2;ratioP2;P2;SDS_P1;SDS_P2;PMS_P1;PMS_P2;Temp;Humidity;BMP_temperature;BMP_pressure;BME280_temperature;BME280_humidity;BME280_pressure;Samples;Min_cycle;Max_cycle;Signal;HPM_P1;HPM_P2
2023/05/30 00:01:45;;;;;;;13.15;5.93;;;14.10;99.90;;;;;;5072405;28;20044;-86
2023/05/30 00:04:11;;;;;;;12.80;5.90;;;14.10;99.90;;;;;;5072335;28;20079;-86
2023/05/30 00:06:37;;;;;;;13.00;6.13;;;14.00;99.90;;;;;;5055680;28;20484;-86
2023/05/30 00:09:03;;;;;;;13.82;5.75;;;14.00;99.90;;;;;;5056048;28;20028;-86
2023/05/30 00:11:29;;;;;;;19.85;6.10;;;14.00;99.90;;;;;;5056260;28;20052;-86
2023/05/30 00:13:56;;;;;;;15.60;6.18;;;14.00;99.90;;;;;;5072355;28;20032;-87
2023/05/30 00:16:23;;;;;;;10.07;5.38;;;14.00;99.90;;;;;;5072584;28;20114;-86
2023/05/30 00:18:48;;;;;;;15.95;6.60;;;13.90;99.90;;;;;;5055967;28;20040;-85
2023/05/30 00:21:17;;;;;;;13.15;6.03;;;14.00;99.90;;;;;;5055521;28;20393;-86
2023/05/30 00:23:45;;;;;;;12.48;6.55;;;13.90;99.90;;;;;;5055652;28;20131;-86
2023/05/30 00:26:11;;;;;;;12.10;6.68;;;13.80;99.90;;;;;;5055419;28;20023;-86
2023/05/30 00:28:41;;;;;;;12.68;6.40;;;13.80;99.90;;;;;;5056416;28;20411;-86
2023/05/30 00:31:07;;;;;;;11.55;6.32;;;13.70;99.90;;;;;;5055930;28;20017;-86
2023/05/30 00:33:33;;;;;;;13.57;6.00;;;13.70;99.90;;;;;;5055451;28;20017;-86
2023/05/30 00:35:59;;;;;;;16.70;6.53;;;13.70;99.90;;;;;;5054709;28;20024;-86
2023/05/30 00:38:24;;;;;;;9.27;5.78;;;13.70;99.90;;;;;;5055451;28;20028;-86
2023/05/30 00:40:50;;;;;;;11.63;6.07;;;13.60;99.90;;;;;;5073166;28;20028;-85
2023/05/30 00:43:18;;;;;;;13.05;6.53;;;13.60;99.90;;;;;;5055573;28;20021;-86
2023/05/30 00:45:44;;;;;;;17.70;6.25;;;13.50;99.90;;;;;;5054784;28;20479;-86
2023/05/30 00:48:10;;;;;;;12.68;5.90;;;13.50;99.90;;;;;;5055701;28;20043;-85
2023/05/30 00:50:37;;;;;;;11.57;5.28;;;13.50;99.90;;;;;;5055552;28;20016;-86
2023/05/30 00:53:04;;;;;;;16.50;5.57;;;13.40;99.90;;;;;;5055619;28;20162;-86
2023/05/30 00:55:30;;;;;;;16.27;7.10;;;13.40;99.90;;;;;;5055519;28;20078;-85
2023/05/30 00:58:02;;;;;;;11.07;5.72;;;13.40;99.90;;;;;;5071884;28;20032;-86
2023/05/30 01:00:30;;;;;;;16.00;6.45;;;13.30;99.90;;;;;;5055505;28;20027;-87
2023/05/30 01:03:02;;;;;;;10.23;5.53;;;13.20;99.90;;;;;;5055269;28;20028;-86
2023/05/30 01:05:29;;;;;;;17.25;6.07;;;13.20;99.90;;;;;;5071236;28;20086;-85
2023/05/30 01:07:55;;;;;;;11.82;5.55;;;13.20;99.90;;;;;;5073279;28;20021;-86
2023/05/30 01:10:21;;;;;;;13.77;5.88;;;13.10;99.90;;;;;;5054978;28;20017;-86
2023/05/30 01:13:25;;;;;;;14.50;5.95;;;13.10;99.90;;;;;;5071903;28;20090;-86
2023/05/30 01:16:07;;;;;;;15.93;5.97;;;13.10;99.90;;;;;;5086769;28;20056;-86
2023/05/30 01:18:53;;;;;;;13.70;6.15;;;13.00;99.90;;;;;;5071318;28;20024;-86
2023/05/30 01:21:21;;;;;;;16.52;5.65;;;12.90;99.90;;;;;;5071499;28;20196;-85
2023/05/30 01:24:04;;;;;;;15.30;5.35;;;12.80;99.90;;;;;;5086679;28;20024;-86
2023/05/30 01:26:49;;;;;;;10.45;5.68;;;12.90;99.90;;;;;;5071325;28;20036;-87
2023/05/30 01:29:20;;;;;;;20.58;6.57;;;12.80;99.90;;;;;;5088908;28;20020;-86
2023/05/30 01:31:46;;;;;;;13.10;5.72;;;12.80;99.90;;;;;;5054989;28;20021;-86
2023/05/30 01:34:15;;;;;;;14.82;6.40;;;12.80;99.90;;;;;;5071993;28;20781;-86
2023/05/30 01:36:44;;;;;;;16.85;6.50;;;12.80;99.90;;;;;;5055000;28;20029;-86
2023/05/30 01:39:28;;;;;;;15.57;6.78;;;12.80;99.90;;;;;;5055016;28;20029;-86
2023/05/30 01:42:04;;;;;;;14.98;6.05;;;12.70;99.90;;;;;;5069406;28;20033;-86
2023/05/30 01:45:15;;;;;;;12.68;5.88;;;12.70;99.90;;;;;;5071018;28;20555;-86
2023/05/30 01:47:56;;;;;;;19.63;6.20;;;12.70;99.90;;;;;;5070096;28;20531;-86
2023/05/30 01:50:28;;;;;;;13.05;5.70;;;12.80;99.90;;;;;;5088595;28;20021;-84
2023/05/30 01:52:59;;;;;;;13.85;5.72;;;12.80;99.90;;;;;;5054902;28;20086;-86
2023/05/30 01:55:25;;;;;;;24.70;7.90;;;12.80;99.90;;;;;;5055039;28;20024;-86
2023/05/30 01:57:55;;;;;;;14.02;6.03;;;12.80;99.90;;;;;;5056535;28;20032;-87
2023/05/30 02:00:26;;;;;;;11.25;5.60;;;12.70;99.90;;;;;;5058570;28;20032;-86
2023/05/30 02:02:52;;;;;;;17.70;5.80;;;12.70;99.90;;;;;;5075854;28;20032;-86
2023/05/30 02:05:17;;;;;;;14.55;5.25;;;12.70;99.90;;;;;;5058093;28;20769;-86
2023/05/30 02:07:43;;;;;;;11.05;6.13;;;12.70;99.90;;;;;;5108875;28;20455;-86
2023/05/30 02:10:10;;;;;;;12.15;5.43;;;12.60;99.90;;;;;;5069780;28;20023;-86
2023/05/30 02:12:35;;;;;;;11.85;5.72;;;12.60;99.90;;;;;;5057993;28;20052;-86
2023/05/30 02:15:01;;;;;;;15.52;6.68;;;12.70;99.90;;;;;;5056853;28;20437;-86
2023/05/30 02:17:27;;;;;;;13.40;5.88;;;12.70;99.90;;;;;;5057775;28;20380;-86
2023/05/30 02:19:52;;;;;;;12.63;5.82;;;12.60;99.90;;;;;;5057869;28;20032;-86
2023/05/30 02:22:18;;;;;;;12.88;5.95;;;12.60;99.90;;;;;;5058876;28;20020;-85
2023/05/30 02:24:44;;;;;;;9.88;5.90;;;12.50;99.90;;;;;;5057976;28;20498;-86
2023/05/30 02:27:10;;;;;;;18.13;6.47;;;12.50;99.90;;;;;;5074747;28;20119;-86
2023/05/30 02:29:37;;;;;;;11.75;5.75;;;12.50;99.90;;;;;;5063847;28;20032;-86
2023/05/30 02:32:02;;;;;;;14.65;6.28;;;12.50;99.90;;;;;;5058350;28;20063;-86
2023/05/30 02:34:28;;;;;;;16.08;5.97;;;12.50;99.90;;;;;;5074627;28;20024;-85
2023/05/30 02:36:56;;;;;;;10.90;5.72;;;12.40;99.90;;;;;;5057756;28;20025;-86
2023/05/30 02:39:25;;;;;;;10.95;6.05;;;12.40;99.90;;;;;;5074826;28;20021;-85
2023/05/30 02:41:50;;;;;;;21.67;5.95;;;12.40;99.90;;;;;;5057913;28;20494;-85
2023/05/30 02:44:18;;;;;;;11.98;5.80;;;12.30;99.90;;;;;;5055814;28;20025;-85
2023/05/30 02:46:44;;;;;;;10.50;5.43;;;12.40;99.90;;;;;;5057636;28;20028;-86
2023/05/30 02:49:11;;;;;;;10.45;5.82;;;12.30;99.90;;;;;;5054313;28;20535;-86
2023/05/30 02:51:37;;;;;;;13.20;5.82;;;12.30;99.90;;;;;;5057539;28;20013;-86
2023/05/30 02:54:05;;;;;;;8.52;4.88;;;12.30;99.90;;;;;;5058000;28;20032;-85
2023/05/30 02:56:54;;;;;;;10.70;4.80;;;12.20;99.90;;;;;;5076178;28;20036;-85
2023/05/30 02:59:44;;;;;;;13.10;5.78;;;12.10;99.90;;;;;;5070363;28;20106;-85
2023/05/30 03:02:12;;;;;;;11.77;5.30;;;12.10;99.90;;;;;;5056906;28;20031;-85
2023/05/30 03:04:38;;;;;;;13.20;5.60;;;12.10;99.90;;;;;;5057416;28;20128;-86
2023/05/30 03:07:07;;;;;;;14.43;6.32;;;12.10;99.90;;;;;;5058312;28;20046;-85
2023/05/30 03:09:36;;;;;;;12.10;4.95;;;12.10;99.90;;;;;;5107061;28;20027;-85
2023/05/30 03:12:03;;;;;;;10.13;5.28;;;12.10;99.90;;;;;;5057117;28;20115;-85
2023/05/30 03:14:29;;;;;;;12.98;5.57;;;12.10;99.90;;;;;;5074140;28;20128;-86
2023/05/30 03:16:58;;;;;;;13.48;5.00;;;12.00;99.90;;;;;;5056921;28;20032;-86
2023/05/30 03:19:25;;;;;;;13.35;4.60;;;12.00;99.90;;;;;;5057522;28;20032;-85
2023/05/30 03:21:56;;;;;;;9.90;5.80;;;12.10;99.90;;;;;;5057682;28;20008;-85
2023/05/30 03:24:23;;;;;;;24.95;5.60;;;12.00;99.90;;;;;;5057168;28;20391;-85
2023/05/30 03:26:49;;;;;;;11.95;4.68;;;12.00;99.90;;;;;;5058328;28;20036;-85
2023/05/30 03:29:16;;;;;;;14.40;4.93;;;12.00;99.90;;;;;;5050821;28;20041;-84
2023/05/30 03:31:43;;;;;;;16.15;4.72;;;11.90;99.90;;;;;;5067281;28;20028;-83
2023/05/30 03:34:10;;;;;;;16.10;4.88;;;12.00;99.90;;;;;;5059703;28;21411;-83
2023/05/30 03:36:36;;;;;;;8.05;4.07;;;11.90;99.90;;;;;;5056861;28;20020;-83
2023/05/30 03:39:02;;;;;;;13.95;4.07;;;11.90;99.90;;;;;;5072417;28;20039;-84
2023/05/30 03:41:27;;;;;;;10.57;4.60;;;12.00;99.90;;;;;;5055955;28;20048;-83
2023/05/30 03:43:55;;;;;;;18.73;4.88;;;11.90;99.90;;;;;;5055943;28;20028;-83
2023/05/30 03:46:22;;;;;;;10.32;4.55;;;12.00;99.90;;;;;;5055787;28;20042;-83
2023/05/30 03:48:49;;;;;;;13.82;4.72;;;12.00;99.90;;;;;;5055522;28;20020;-84
2023/05/30 03:51:16;;;;;;;9.52;4.40;;;12.00;99.90;;;;;;5069358;28;20050;-83
2023/05/30 03:53:42;;;;;;;11.60;4.75;;;12.00;99.90;;;;;;5074424;28;20729;-83
2023/05/30 03:56:08;;;;;;;18.35;5.47;;;11.90;99.90;;;;;;5056214;28;20024;-84
2023/05/30 03:58:33;;;;;;;18.88;6.53;;;11.90;99.90;;;;;;5072652;28;20036;-83
2023/05/30 04:01:02;;;;;;;11.63;4.57;;;11.90;99.90;;;;;;5106370;28;20066;-83
2023/05/30 04:03:28;;;;;;;13.35;3.90;;;11.90;99.90;;;;;;5072815;28;20028;-83
2023/05/30 04:05:58;;;;;;;13.85;4.13;;;11.90;99.90;;;;;;5055177;28;20119;-84
2023/05/30 04:08:25;;;;;;;13.88;4.30;;;12.00;99.90;;;;;;5055673;28;20128;-83
2023/05/30 04:10:51;;;;;;;9.80;3.95;;;12.00;99.90;;;;;;5106152;28;20028;-83
2023/05/30 04:13:17;;;;;;;13.02;4.82;;;12.10;99.90;;;;;;5072376;28;20369;-82
2023/05/30 04:15:44;;;;;;;11.00;4.05;;;12.10;99.90;;;;;;5055452;28;20490;-84
2023/05/30 04:18:10;;;;;;;10.15;3.75;;;12.10;99.90;;;;;;5071941;28;20055;-84
2023/05/30 04:20:36;;;;;;;12.00;3.92;;;12.10;99.90;;;;;;5054877;28;20491;-84
2023/05/30 04:23:02;;;;;;;11.75;3.80;;;12.10;99.90;;;;;;5055904;28;20047;-83
2023/05/30 04:25:28;;;;;;;19.00;4.10;;;12.20;99.90;;;;;;5065297;28;20388;-83
2023/05/30 04:27:54;;;;;;;18.15;4.68;;;12.20;99.90;;;;;;5071898;28;20716;-83
2023/05/30 04:30:20;;;;;;;9.27;4.50;;;12.30;99.90;;;;;;5106108;28;20021;-83
2023/05/30 04:32:46;;;;;;;9.40;3.55;;;12.30;99.90;;;;;;5106038;28;20391;-83
2023/05/30 04:35:13;;;;;;;9.88;3.75;;;12.40;99.90;;;;;;5055326;28;20025;-83
2023/05/30 04:37:44;;;;;;;18.73;5.05;;;12.50;99.90;;;;;;5054954;28;20435;-83
2023/05/30 04:40:14;;;;;;;11.88;4.28;;;12.50;99.90;;;;;;5072313;28;20029;-84
2023/05/30 04:42:43;;;;;;;19.08;3.80;;;12.60;99.90;;;;;;5071542;28;20020;-82
2023/05/30 04:45:10;;;;;;;11.82;3.60;;;12.60;99.90;;;;;;5054647;28;20047;-82
2023/05/30 04:47:36;;;;;;;15.68;3.60;;;12.60;99.90;;;;;;5055163;28;20044;-82
2023/05/30 04:50:03;;;;;;;10.30;4.00;;;12.60;99.90;;;;;;5055126;28;20027;-83
2023/05/30 04:52:29;;;;;;;9.30;4.15;;;12.60;99.90;;;;;;5071567;28;20494;-83
2023/05/30 04:54:55;;;;;;;11.38;3.67;;;12.70;99.90;;;;;;5071814;28;20384;-83
2023/05/30 04:57:21;;;;;;;9.98;3.65;;;12.70;99.90;;;;;;5055599;28;20040;-82
2023/05/30 04:59:47;;;;;;;13.63;4.43;;;12.70;99.90;;;;;;5055777;28;20122;-83
2023/05/30 05:02:13;;;;;;;12.50;4.00;;;12.80;99.90;;;;;;5054482;28;20127;-83
2023/05/30 05:04:39;;;;;;;24.40;3.90;;;12.80;99.90;;;;;;5072379;28;20024;-83
2023/05/30 05:07:05;;;;;;;15.45;4.57;;;12.90;99.90;;;;;;5054715;28;20409;-83
2023/05/30 05:09:31;;;;;;;13.65;3.78;;;12.90;99.90;;;;;;5054949;28;20091;-83
2023/05/30 05:11:57;;;;;;;16.45;4.43;;;13.00;99.90;;;;;;5054276;28;20552;-82
2023/05/30 05:14:23;;;;;;;18.10;4.20;;;13.10;99.90;;;;;;5055043;28;20107;-82
2023/05/30 05:16:49;;;;;;;8.80;3.25;;;13.20;99.90;;;;;;5054962;28;20392;-83
2023/05/30 05:19:15;;;;;;;8.75;3.55;;;13.20;99.90;;;;;;5054380;28;20091;-83
2023/05/30 05:21:40;;;;;;;11.52;3.38;;;13.20;99.90;;;;;;5054430;28;20064;-83
2023/05/30 05:24:07;;;;;;;12.80;3.92;;;13.40;99.90;;;;;;5053771;28;20567;-83
2023/05/30 05:26:34;;;;;;;12.23;3.60;;;13.40;99.90;;;;;;5071418;28;20595;-83
2023/05/30 05:29:00;;;;;;;13.75;4.10;;;13.50;99.90;;;;;;5054664;28;20737;-82
2023/05/30 05:31:47;;;;;;;16.58;3.45;;;13.50;99.90;;;;;;5070753;28;20025;-82
2023/05/30 05:34:13;;;;;;;15.55;3.85;;;13.60;99.90;;;;;;5109151;28;20025;-83
2023/05/30 05:36:42;;;;;;;15.20;3.55;;;13.60;99.90;;;;;;5058448;28;20025;-83
2023/05/30 05:39:08;;;;;;;14.90;3.90;;;13.60;99.90;;;;;;5058013;28;20021;-83
2023/05/30 05:41:35;;;;;;;7.75;3.53;;;13.70;99.90;;;;;;5075261;28;20090;-83
2023/05/30 05:44:01;;;;;;;16.00;4.72;;;13.70;99.90;;;;;;5060102;28;20045;-89
2023/05/30 05:46:27;;;;;;;7.50;3.50;;;13.80;99.90;;;;;;5060777;28;20019;-88
2023/05/30 05:48:54;;;;;;;8.15;3.50;;;13.90;99.90;;;;;;5060295;28;20025;-88
2023/05/30 05:51:21;;;;;;;14.80;3.42;;;14.00;99.90;;;;;;5059937;28;20545;-88
2023/05/30 05:53:46;;;;;;;8.32;3.63;;;14.10;99.90;;;;;;5077384;28;20028;-87
2023/05/30 05:56:12;;;;;;;18.27;3.53;;;14.30;99.90;;;;;;5076968;28;20392;-87
2023/05/30 05:58:38;;;;;;;13.48;3.42;;;14.30;99.90;;;;;;5059874;28;20123;-88
2023/05/30 06:01:04;;;;;;;13.65;3.40;;;14.40;99.90;;;;;;5059086;28;20549;-87
2023/05/30 06:03:30;;;;;;;12.30;3.15;;;14.40;99.90;;;;;;5060115;28;20025;-88
2023/05/30 06:05:56;;;;;;;7.88;3.22;;;14.40;99.90;;;;;;5050610;28;20396;-88
2023/05/30 06:12:10;;;;;;;9.48;3.45;;;14.60;99.90;;;;;;5070754;28;20028;-88
2023/05/30 06:14:35;;;;;;;15.38;3.45;;;14.80;99.90;;;;;;5051903;28;20017;-88
2023/05/30 06:17:01;;;;;;;11.07;5.07;;;14.90;99.90;;;;;;5057864;28;20485;-87
2023/05/30 06:19:27;;;;;;;15.90;3.80;;;15.00;99.90;;;;;;5058897;28;20060;-87
2023/05/30 06:21:52;;;;;;;8.35;3.20;;;14.90;99.90;;;;;;5053191;28;20120;-88
2023/05/30 06:24:18;;;;;;;14.93;3.60;;;15.10;99.90;;;;;;5058365;28;20056;-88
2023/05/30 06:26:44;;;;;;;13.50;3.70;;;15.10;99.90;;;;;;5058186;28;20029;-88
2023/05/30 06:29:10;;;;;;;9.20;3.40;;;15.20;99.90;;;;;;5101861;28;20040;-88
2023/05/30 06:31:36;;;;;;;8.43;3.55;;;15.10;99.90;;;;;;5055948;28;20024;-88
2023/05/30 06:34:02;;;;;;;18.17;3.38;;;15.10;99.90;;;;;;5050214;28;20399;-87
2023/05/30 06:36:27;;;;;;;8.57;3.10;;;15.20;99.90;;;;;;5052483;28;20372;-88
2023/05/30 06:38:53;;;;;;;15.52;3.67;;;15.40;99.90;;;;;;5087944;28;20035;-88
2023/05/30 06:41:19;;;;;;;10.88;3.15;;;15.40;99.90;;;;;;5067746;28;20032;-88
2023/05/30 06:43:44;;;;;;;15.15;3.78;;;15.60;99.90;;;;;;5057151;28;20032;-88
2023/05/30 06:46:10;;;;;;;12.25;4.10;;;15.60;99.90;;;;;;5062478;28;20029;-88
2023/05/30 06:48:36;;;;;;;11.43;4.38;;;15.70;99.90;;;;;;5074777;28;20012;-87
2023/05/30 06:51:02;;;;;;;9.13;3.75;;;15.80;99.90;;;;;;5072997;28;20059;-88
2023/05/30 06:53:28;;;;;;;11.73;4.18;;;15.90;99.90;;;;;;5058070;28;20384;-89
2023/05/30 06:55:54;;;;;;;16.48;3.97;;;15.90;99.90;;;;;;5074627;28;20035;-88
2023/05/30 06:58:20;;;;;;;9.40;3.25;;;15.90;99.90;;;;;;5058557;28;21194;-88
2023/05/30 07:00:46;;;;;;;8.35;3.13;;;15.90;99.90;;;;;;5108175;28;20040;-88
2023/05/30 07:03:12;;;;;;;15.07;3.75;;;16.00;99.90;;;;;;5071488;28;20035;-88
2023/05/30 07:05:38;;;;;;;10.35;3.58;;;16.30;99.90;;;;;;5069822;28;20372;-89
2023/05/30 07:08:04;;;;;;;10.13;3.60;;;16.50;99.90;;;;;;5076717;28;20024;-89
2023/05/30 07:10:29;;;;;;;15.25;3.50;;;16.40;99.90;;;;;;5057199;28;20033;-89
2023/05/30 07:12:55;;;;;;;10.85;3.40;;;16.70;99.90;;;;;;5055437;28;20027;-88
2023/05/30 07:15:21;;;;;;;11.80;3.33;;;16.90;99.90;;;;;;5071049;28;20498;-87
2023/05/30 07:17:46;;;;;;;9.05;3.63;;;16.90;99.90;;;;;;5079155;28;20100;-88
2023/05/30 07:20:12;;;;;;;11.25;3.65;;;16.90;99.90;;;;;;5068395;28;20035;-88
2023/05/30 07:22:38;;;;;;;8.50;3.00;;;17.00;99.90;;;;;;5052758;28;20444;-88
2023/05/30 07:25:05;;;;;;;7.10;3.30;;;17.20;99.90;;;;;;5058063;28;20363;-89
2023/05/30 07:27:31;;;;;;;13.25;3.13;;;17.40;99.90;;;;;;5059723;28;20020;-88
2023/05/30 07:29:57;;;;;;;10.90;3.95;;;17.80;99.90;;;;;;5068887;28;20115;-89
2023/05/30 07:32:22;;;;;;;12.77;3.42;;;17.90;99.20;;;;;;5052141;28;20037;-87
2023/05/30 07:34:48;;;;;;;9.38;3.83;;;17.70;99.10;;;;;;5062905;28;20036;-88
2023/05/30 07:37:14;;;;;;;9.05;2.90;;;17.50;99.50;;;;;;5065329;28;20492;-88
2023/05/30 07:39:40;;;;;;;11.77;3.40;;;17.40;99.40;;;;;;5069437;28;20025;-88
2023/05/30 07:42:07;;;;;;;8.02;3.20;;;17.50;99.90;;;;;;5050461;28;20053;-88
2023/05/30 07:44:32;;;;;;;14.82;3.42;;;17.70;99.70;;;;;;5073531;28;20036;-88
2023/05/30 07:46:58;;;;;;;9.23;3.13;;;17.60;98.60;;;;;;5054360;28;20468;-88
2023/05/30 07:49:25;;;;;;;9.45;3.25;;;17.40;98.40;;;;;;5111775;27;20120;-88
2023/05/30 07:51:50;;;;;;;5.57;2.78;;;17.50;99.30;;;;;;5056767;28;20464;-88
2023/05/30 07:54:16;;;;;;;9.70;3.50;;;18.50;97.90;;;;;;5056305;28;20035;-89
2023/05/30 07:56:42;;;;;;;7.85;3.45;;;19.70;96.70;;;;;;5072115;28;20536;-88
2023/05/30 07:59:08;;;;;;;7.75;3.17;;;20.30;94.80;;;;;;5052788;28;20541;-89
2023/05/30 08:01:33;;;;;;;13.27;3.28;;;21.10;92.80;;;;;;5042588;28;20071;-89
2023/05/30 08:04:00;;;;;;;9.00;3.22;;;21.90;91.90;;;;;;5079923;28;20448;-89
2023/05/30 08:06:25;;;;;;;10.93;3.53;;;22.50;87.70;;;;;;5055138;28;20031;-86
2023/05/30 08:08:51;;;;;;;7.65;3.08;;;22.80;85.30;;;;;;5081854;28;20426;-87
2023/05/30 08:11:17;;;;;;;9.15;3.17;;;23.60;83.60;;;;;;5063208;28;20034;-88
2023/05/30 08:13:47;;;;;;;10.23;3.30;;;24.10;81.10;;;;;;5093681;28;20039;-88
2023/05/30 08:16:14;;;;;;;9.07;3.08;;;23.90;76.00;;;;;;5075145;28;20060;-88
2023/05/30 08:18:41;;;;;;;10.05;3.40;;;23.90;77.50;;;;;;5076811;28;20016;-89
2023/05/30 08:21:07;;;;;;;11.15;3.42;;;24.30;74.30;;;;;;5058729;28;20028;-88
2023/05/30 08:23:33;;;;;;;12.95;3.38;;;24.80;72.60;;;;;;5065636;28;20027;-88
2023/05/30 08:25:59;;;;;;;7.07;3.17;;;25.30;72.00;;;;;;5062377;28;20032;-90
2023/05/30 08:28:43;;;;;;;9.45;3.17;;;25.60;68.20;;;;;;5057805;28;20560;-89
2023/05/30 08:31:09;;;;;;;9.68;3.10;;;25.60;67.30;;;;;;5057095;28;20111;-88
2023/05/30 08:33:38;;;;;;;13.52;3.17;;;25.50;66.90;;;;;;5074109;28;20097;-87
2023/05/30 08:36:04;;;;;;;8.02;3.25;;;25.90;67.50;;;;;;5074542;28;20100;-87
2023/05/30 08:38:31;;;;;;;12.60;4.05;;;25.90;65.40;;;;;;5057427;28;20439;-88
2023/05/30 08:40:56;;;;;;;10.65;3.17;;;26.10;66.50;;;;;;5055056;28;20479;-89
2023/05/30 08:43:22;;;;;;;9.40;3.20;;;26.20;62.50;;;;;;5072988;28;20043;-87
2023/05/30 08:45:53;;;;;;;10.48;3.45;;;26.20;63.10;;;;;;5057033;28;20384;-88
2023/05/30 08:48:20;;;;;;;8.15;3.30;;;25.70;65.00;;;;;;5107539;28;20472;-89
2023/05/30 08:50:46;;;;;;;10.05;3.67;;;25.90;64.00;;;;;;5073754;28;20056;-88
2023/05/30 08:53:12;;;;;;;8.32;3.08;;;25.70;63.10;;;;;;5078252;28;20020;-89
2023/05/30 08:55:43;;;;;;;9.38;3.08;;;25.80;62.70;;;;;;5066791;28;20384;-88
2023/05/30 08:58:46;;;;;;;20.67;3.30;;;25.00;63.10;;;;;;5061645;28;20032;-89
2023/05/30 09:01:12;;;;;;;14.45;4.40;;;24.60;64.90;;;;;;5055006;28;20491;-88
2023/05/30 09:03:44;;;;;;;16.10;3.65;;;24.80;65.10;;;;;;5057570;28;20035;-88
2023/05/30 09:06:15;;;;;;;13.00;3.15;;;24.80;63.80;;;;;;5073682;28;20056;-87
2023/05/30 09:08:45;;;;;;;10.30;3.17;;;25.00;63.70;;;;;;5057319;28;20083;-87
2023/05/30 09:11:13;;;;;;;5.63;3.35;;;25.20;64.00;;;;;;5076307;28;20111;-88
2023/05/30 09:13:41;;;;;;;9.50;3.88;;;24.90;64.60;;;;;;5073632;28;20009;-88
2023/05/30 09:16:08;;;;;;;8.05;3.50;;;24.80;64.40;;;;;;5056802;28;20357;-88
2023/05/30 09:18:34;;;;;;;9.30;3.45;;;24.40;63.40;;;;;;5057202;28;20031;-89
2023/05/30 09:21:00;;;;;;;7.75;3.22;;;24.70;65.00;;;;;;5074044;28;20036;-88
2023/05/30 09:23:27;;;;;;;6.88;2.92;;;24.80;64.90;;;;;;5073821;28;20395;-89
2023/05/30 09:25:52;;;;;;;10.48;3.70;;;24.90;63.50;;;;;;5073738;28;20119;-88
2023/05/30 09:28:25;;;;;;;10.15;3.63;;;24.90;62.80;;;;;;5061232;28;20452;-89
2023/05/30 09:31:02;;;;;;;13.07;3.55;;;25.60;62.70;;;;;;5073907;28;20023;-88
2023/05/30 09:33:44;;;;;;;12.07;3.42;;;26.10;63.40;;;;;;5073203;28;20035;-88
2023/05/30 09:36:18;;;;;;;9.82;3.42;;;25.90;61.80;;;;;;5058079;28;20052;-87
2023/05/30 09:39:04;;;;;;;12.52;3.85;;;25.90;63.20;;;;;;5057606;28;20127;-88
2023/05/30 09:41:31;;;;;;;11.07;4.15;;;25.80;60.70;;;;;;5057444;28;20032;-87
2023/05/30 09:43:58;;;;;;;11.45;3.25;;;25.80;61.20;;;;;;5057298;28;20479;-87
2023/05/30 09:46:26;;;;;;;9.55;3.58;;;25.90;60.30;;;;;;5073572;28;20031;-87
2023/05/30 09:48:53;;;;;;;6.38;3.17;;;26.60;59.80;;;;;;5056061;28;20124;-88
2023/05/30 09:51:21;;;;;;;9.13;3.22;;;27.10;59.10;;;;;;5044790;28;20396;-87
2023/05/30 09:53:54;;;;;;;8.23;3.00;;;26.70;60.80;;;;;;5078755;28;20059;-87
2023/05/30 09:56:28;;;;;;;7.55;3.22;;;26.70;59.40;;;;;;5078757;28;20025;-87
2023/05/30 09:58:58;;;;;;;12.93;3.22;;;26.20;59.40;;;;;;5079289;28;20597;-87
2023/05/30 10:01:23;;;;;;;10.88;3.50;;;26.40;60.10;;;;;;5061447;28;20070;-88
2023/05/30 10:03:49;;;;;;;10.43;4.15;;;26.20;61.30;;;;;;5056425;28;20058;-88
2023/05/30 10:06:15;;;;;;;10.45;3.53;;;25.30;62.80;;;;;;5075534;28;20032;-86
2023/05/30 10:08:44;;;;;;;10.95;3.85;;;24.70;63.00;;;;;;5062398;28;20543;-88
2023/05/30 10:11:10;;;;;;;10.60;4.00;;;24.50;66.10;;;;;;5080446;28;20025;-87
2023/05/30 10:13:38;;;;;;;8.45;3.47;;;24.30;63.70;;;;;;5067001;28;20024;-88
2023/05/30 10:16:10;;;;;;;13.00;4.05;;;23.90;65.50;;;;;;5057140;28;20032;-88
2023/05/30 10:18:44;;;;;;;9.63;3.40;;;23.80;64.50;;;;;;5065013;28;20060;-88
2023/05/30 10:21:11;;;;;;;12.63;4.47;;;23.60;65.20;;;;;;5063204;28;20051;-89
2023/05/30 10:23:40;;;;;;;10.88;3.47;;;23.70;67.00;;;;;;5093781;28;20114;-88
2023/05/30 10:26:07;;;;;;;8.93;3.47;;;23.70;65.80;;;;;;5060655;28;20028;-88
2023/05/30 10:28:35;;;;;;;11.35;3.30;;;23.90;65.10;;;;;;5091447;28;20055;-88
2023/05/30 10:31:03;;;;;;;15.23;4.00;;;23.40;67.10;;;;;;5065825;28;20020;-87
2023/05/30 10:33:35;;;;;;;13.45;3.78;;;23.00;68.30;;;;;;5108861;27;20025;-87
2023/05/30 10:36:01;;;;;;;14.50;4.15;;;23.30;69.40;;;;;;5086590;28;20122;-87
2023/05/30 10:38:31;;;;;;;10.40;4.28;;;23.40;68.10;;;;;;5079962;28;20032;-89
2023/05/30 10:41:05;;;;;;;8.90;3.88;;;23.40;69.20;;;;;;5065450;28;20031;-88
2023/05/30 10:44:03;;;;;;;15.23;4.20;;;23.50;68.70;;;;;;5063460;28;20120;-89
2023/05/30 10:46:40;;;;;;;8.95;3.15;;;24.20;68.50;;;;;;5087808;28;20485;-87
2023/05/30 10:49:13;;;;;;;11.40;3.40;;;24.60;66.00;;;;;;5061612;28;20380;-88
2023/05/30 10:51:57;;;;;;;11.43;3.67;;;24.90;64.60;;;;;;5074915;28;20028;-88
2023/05/30 10:54:24;;;;;;;8.45;3.33;;;24.40;64.30;;;;;;5066651;28;20028;-89
2023/05/30 10:56:51;;;;;;;16.98;4.07;;;24.40;63.50;;;;;;5075831;28;20070;-88
2023/05/30 10:59:21;;;;;;;8.27;3.75;;;24.00;62.60;;;;;;5100565;28;20025;-88
2023/05/30 11:02:05;;;;;;;8.18;3.70;;;23.80;64.90;;;;;;5074644;28;20036;-88
2023/05/30 11:04:38;;;;;;;12.52;4.32;;;24.20;65.20;;;;;;5104865;27;20437;-87
2023/05/30 11:07:05;;;;;;;8.52;3.63;;;24.40;65.30;;;;;;5063025;28;20521;-88
2023/05/30 11:09:32;;;;;;;7.93;3.80;;;24.40;64.30;;;;;;5082178;28;20075;-87
2023/05/30 11:12:01;;;;;;;9.07;3.67;;;24.60;64.00;;;;;;5059903;28;20040;-87
2023/05/30 11:14:32;;;;;;;10.52;3.47;;;24.60;65.00;;;;;;5068467;28;20032;-88
2023/05/30 11:17:04;;;;;;;10.10;3.13;;;24.70;63.00;;;;;;5070396;28;20036;-88
2023/05/30 11:19:42;;;;;;;8.20;3.50;;;24.80;61.10;;;;;;5079363;28;20025;-88
2023/05/30 11:22:23;;;;;;;7.22;3.30;;;24.60;60.60;;;;;;5062734;28;20059;-88
2023/05/30 11:25:19;;;;;;;10.00;3.60;;;25.00;59.60;;;;;;5123282;27;20036;-88
2023/05/30 11:28:00;;;;;;;9.52;3.38;;;25.50;59.70;;;;;;5093570;28;20037;-88
2023/05/30 11:30:26;;;;;;;;;;;25.70;59.80;;;;;;5108289;28;20077;-88
2023/05/30 11:32:58;;;;;;;13.68;3.67;;;25.70;59.20;;;;;;5076457;28;20061;-88
2023/05/30 11:35:25;;;;;;;5.05;2.95;;;25.60;57.30;;;;;;5059967;28;20032;-90
2023/05/30 11:37:50;;;;;;;9.95;3.33;;;25.30;57.70;;;;;;5058924;28;20529;-88
2023/05/30 11:40:16;;;;;;;19.25;4.05;;;25.20;57.20;;;;;;5059570;28;20036;-87
2023/05/30 11:42:43;;;;;;;11.65;3.70;;;25.10;58.10;;;;;;5059236;28;20036;-89
2023/05/30 11:45:09;;;;;;;10.65;3.15;;;25.10;58.60;;;;;;5109216;28;20060;-88
2023/05/30 11:47:35;;;;;;;10.50;3.28;;;24.80;59.00;;;;;;5058980;28;20630;-87
2023/05/30 11:50:01;;;;;;;7.22;3.90;;;24.50;57.60;;;;;;5058505;28;20067;-86
2023/05/30 11:52:27;;;;;;;9.13;3.30;;;24.30;56.70;;;;;;5058846;28;20103;-88
2023/05/30 11:55:00;;;;;;;7.28;3.40;;;24.20;58.50;;;;;;5059247;28;20028;-88
2023/05/30 11:57:27;;;;;;;12.05;3.38;;;23.60;59.10;;;;;;5058628;28;20013;-88
2023/05/30 11:59:54;;;;;;;9.60;3.17;;;23.40;59.70;;;;;;5059131;28;20123;-88
2023/05/30 12:02:20;;;;;;;16.42;3.28;;;22.90;58.60;;;;;;5063222;28;20066;-88
2023/05/30 12:04:45;;;;;;;8.85;3.97;;;23.00;61.00;;;;;;5060158;28;20036;-88
2023/05/30 12:07:13;;;;;;;7.10;3.10;;;23.10;59.10;;;;;;5075346;28;20468;-88
2023/05/30 12:09:39;;;;;;;7.25;3.50;;;23.40;58.40;;;;;;5076320;28;20020;-88
2023/05/30 12:12:06;;;;;;;6.78;2.83;;;23.60;59.30;;;;;;5058240;28;20090;-87
2023/05/30 12:14:38;;;;;;;7.65;3.10;;;23.70;57.40;;;;;;5057308;28;20110;-88
2023/05/30 12:17:09;;;;;;;10.65;3.50;;;24.10;56.30;;;;;;5058203;28;20032;-88
2023/05/30 12:19:34;;;;;;;7.68;3.40;;;24.30;57.10;;;;;;5082541;28;20356;-87
2023/05/30 12:22:03;;;;;;;10.00;3.45;;;24.70;56.30;;;;;;5085866;28;20043;-88
2023/05/30 12:24:34;;;;;;;9.57;3.55;;;24.80;54.20;;;;;;5062306;28;20567;-88
2023/05/30 12:27:01;;;;;;;8.40;3.42;;;24.80;54.50;;;;;;5062063;28;20476;-88
2023/05/30 12:29:34;;;;;;;6.63;3.08;;;24.90;51.90;;;;;;5058763;28;20078;-88
2023/05/30 12:32:01;;;;;;;8.68;3.55;;;25.00;53.40;;;;;;5074820;28;20426;-88
2023/05/30 12:34:36;;;;;;;5.45;2.90;;;25.30;55.10;;;;;;5058008;28;20620;-88
2023/05/30 12:37:02;;;;;;;8.70;3.10;;;25.00;55.90;;;;;;5086975;28;20060;-88
2023/05/30 12:39:28;;;;;;;8.73;2.90;;;25.20;53.70;;;;;;5057910;28;20035;-87
2023/05/30 12:41:55;;;;;;;6.90;2.97;;;25.60;54.10;;;;;;5057716;28;20037;-87
2023/05/30 12:44:20;;;;;;;6.22;3.15;;;25.90;52.40;;;;;;5075348;28;20033;-88
2023/05/30 12:46:46;;;;;;;10.95;2.88;;;25.90;50.10;;;;;;5057538;28;20111;-88
2023/05/30 12:49:12;;;;;;;10.07;2.80;;;25.20;50.80;;;;;;5058562;28;20036;-89
2023/05/30 12:51:38;;;;;;;11.02;2.97;;;25.30;50.50;;;;;;5058859;28;20064;-88